Time;durP1;ratioP1;P1;durP2;ratioP2;P2;SDS_P1;SDS_P2;PMS_P1;PMS_P2;Temp;Humidity;BMP_temperature;BMP_pressure;BME280_temperature;BME280_humidity;BME280_pressure;Samples;Min_cycle;Max_cycle;Signal;HPM_P1;HPM_P2
2023/03/06 00:01:27;;;;;;;3.53;3.25;;;3.70;99.90;;;;;;5077208;28;20190;-78
2023/03/06 00:03:54;;;;;;;3.83;1.40;;;3.70;99.90;;;;;;5075757;28;20194;-76
2023/03/06 00:06:23;;;;;;;2.63;0.80;;;3.60;99.90;;;;;;5076043;28;20197;-78
2023/03/06 00:08:49;;;;;;;1.60;1.50;;;3.60;99.90;;;;;;5075826;28;20281;-79
2023/03/06 00:11:16;;;;;;;0.50;0.50;;;3.60;99.90;;;;;;5076196;28;20190;-78
2023/03/06 00:13:43;;;;;;;1.45;1.35;;;3.60;99.90;;;;;;5076000;28;20218;-78
2023/03/06 00:16:10;;;;;;;1.88;1.25;;;3.60;99.90;;;;;;5075791;28;20569;-78
2023/03/06 00:18:37;;;;;;;0.88;0.88;;;3.70;99.90;;;;;;5075179;28;20209;-78
2023/03/06 00:21:07;;;;;;;0.50;0.50;;;3.70;99.90;;;;;;5074344;28;20237;-78
2023/03/06 00:23:35;;;;;;;1.95;1.85;;;3.60;99.90;;;;;;5074538;28;20190;-78
2023/03/06 00:26:02;;;;;;;0.60;0.60;;;3.60;99.90;;;;;;5074038;28;20741;-78
2023/03/06 00:28:30;;;;;;;1.00;0.93;;;3.50;99.90;;;;;;5073734;28;20276;-78
2023/03/06 00:30:57;;;;;;;0.50;0.40;;;3.50;99.90;;;;;;5076284;28;20214;-78
2023/03/06 00:33:24;;;;;;;0.60;0.60;;;3.50;99.90;;;;;;5075773;28;20303;-78
2023/03/06 00:35:50;;;;;;;0.65;0.65;;;3.40;99.90;;;;;;5073952;28;20278;-78
2023/03/06 00:38:17;;;;;;;0.50;0.40;;;3.40;99.90;;;;;;5073913;28;20200;-78
2023/03/06 00:40:45;;;;;;;2.45;2.17;;;3.40;99.90;;;;;;5073144;28;20300;-78
2023/03/06 00:43:12;;;;;;;1.45;1.35;;;3.40;99.90;;;;;;5073478;28;20190;-78
2023/03/06 00:45:39;;;;;;;0.73;0.73;;;3.40;99.90;;;;;;5073424;28;20196;-79
2023/03/06 00:48:07;;;;;;;0.50;0.50;;;3.40;99.90;;;;;;5073421;28;20239;-78
2023/03/06 00:50:35;;;;;;;1.15;1.05;;;3.40;99.90;;;;;;5073377;28;20668;-78
2023/03/06 00:53:01;;;;;;;0.60;0.60;;;3.40;99.90;;;;;;5072964;28;20197;-78
2023/03/06 00:55:29;;;;;;;5.70;3.83;;;3.50;99.90;;;;;;5118840;22;20222;-78
2023/03/06 00:57:58;;;;;;;5.18;4.15;;;3.60;99.90;;;;;;5055508;28;20202;-79
2023/03/06 01:00:25;;;;;;;3.55;1.67;;;3.50;99.90;;;;;;5056794;28;20286;-78
2023/03/06 01:02:52;;;;;;;4.10;1.50;;;3.50;99.90;;;;;;5057961;28;20214;-80
2023/03/06 01:05:19;;;;;;;1.88;1.77;;;3.50;99.90;;;;;;5047373;28;20207;-77
2023/03/06 01:07:46;;;;;;;0.57;0.55;;;3.50;99.90;;;;;;5055807;28;20201;-79
2023/03/06 01:10:13;;;;;;;1.15;1.05;;;3.50;99.90;;;;;;5056770;28;20527;-78
2023/03/06 01:12:39;;;;;;;0.55;0.55;;;3.50;99.90;;;;;;5056619;28;20392;-78
2023/03/06 01:15:09;;;;;;;2.10;1.90;;;3.50;99.90;;;;;;5057536;28;20210;-78
2023/03/06 01:17:36;;;;;;;1.38;1.30;;;3.50;99.90;;;;;;5056700;28;20640;-78
2023/03/06 01:20:04;;;;;;;0.50;0.40;;;3.50;99.90;;;;;;5057468;28;20254;-78
2023/03/06 01:22:31;;;;;;;1.23;1.13;;;3.50;99.90;;;;;;5058445;28;20198;-80
2023/03/06 01:24:58;;;;;;;1.02;0.65;;;3.50;99.90;;;;;;5059552;28;20241;-79
2023/03/06 01:27:25;;;;;;;2.05;1.85;;;3.50;99.90;;;;;;5058182;28;20603;-79
2023/03/06 01:29:51;;;;;;;4.82;3.30;;;3.50;99.90;;;;;;5059265;28;20262;-79
2023/03/06 01:32:20;;;;;;;4.28;1.55;;;3.50;99.90;;;;;;5058049;28;20200;-79
2023/03/06 01:34:47;;;;;;;0.60;0.60;;;3.40;99.90;;;;;;5050391;28;20268;-79
2023/03/06 01:37:14;;;;;;;1.15;1.13;;;3.50;99.90;;;;;;5059035;28;20237;-79
2023/03/06 01:39:40;;;;;;;1.77;1.15;;;3.40;99.90;;;;;;5058649;28;20233;-79
2023/03/06 01:42:07;;;;;;;1.27;1.20;;;3.40;99.90;;;;;;5058827;28;20278;-79
2023/03/06 01:44:34;;;;;;;1.08;0.98;;;3.40;99.90;;;;;;5058523;28;20249;-79
2023/03/06 01:47:01;;;;;;;0.50;0.40;;;3.40;99.90;;;;;;5058899;28;20201;-79
2023/03/06 01:49:34;;;;;;;0.50;0.50;;;3.40;99.90;;;;;;5059228;28;20566;-80
2023/03/06 01:52:06;;;;;;;0.82;0.80;;;3.40;99.90;;;;;;5059884;28;20190;-80
2023/03/06 01:54:35;;;;;;;0.60;0.60;;;3.40;99.90;;;;;;5058425;28;20230;-80
2023/03/06 01:57:06;;;;;;;0.50;0.40;;;3.40;99.90;;;;;;5060057;28;20519;-79
2023/03/06 01:59:36;;;;;;;3.13;2.85;;;3.40;99.90;;;;;;5059548;28;20198;-80
2023/03/06 02:02:05;;;;;;;0.80;0.80;;;3.40;99.90;;;;;;5058933;28;20230;-79
2023/03/06 02:04:35;;;;;;;0.50;0.50;;;3.30;99.90;;;;;;5059207;28;20214;-80
2023/03/06 02:07:04;;;;;;;1.15;1.15;;;3.40;99.90;;;;;;5058602;28;20194;-79
2023/03/06 02:09:31;;;;;;;0.50;0.50;;;3.40;99.90;;;;;;5057838;28;20210;-78
2023/03/06 02:11:59;;;;;;;1.25;1.20;;;3.40;99.90;;;;;;5057618;28;20198;-79
2023/03/06 02:14:26;;;;;;;0.50;0.40;;;3.40;99.90;;;;;;5056679;28;20214;-78
2023/03/06 02:16:53;;;;;;;0.50;0.40;;;3.50;99.90;;;;;;5057273;28;20267;-80
2023/03/06 02:19:30;;;;;;;0.50;0.40;;;3.40;99.90;;;;;;5059067;28;20218;-80
2023/03/06 02:21:59;;;;;;;0.50;0.40;;;3.50;99.90;;;;;;5062323;28;20229;-79
2023/03/06 02:24:35;;;;;;;3.70;3.22;;;3.50;99.90;;;;;;5062328;28;20246;-80
2023/03/06 02:27:05;;;;;;;3.95;3.65;;;3.50;99.90;;;;;;5062311;28;20205;-79
2023/03/06 02:29:33;;;;;;;0.50;0.40;;;3.50;99.90;;;;;;5059147;28;20692;-79
2023/03/06 02:31:59;;;;;;;2.10;1.90;;;3.50;99.90;;;;;;5060129;28;20199;-79
2023/03/06 02:34:53;;;;;;;0.50;0.40;;;3.50;99.90;;;;;;5058799;28;20282;-79
2023/03/06 02:37:21;;;;;;;4.15;1.73;;;3.50;99.90;;;;;;5059624;28;20258;-79
2023/03/06 02:39:53;;;;;;;0.88;0.88;;;3.50;99.90;;;;;;5059288;28;20650;-79
2023/03/06 02:42:23;;;;;;;1.52;1.42;;;3.50;99.90;;;;;;5059217;28;20274;-79
2023/03/06 02:44:53;;;;;;;4.13;3.83;;;3.40;99.90;;;;;;5061850;28;20210;-79
2023/03/06 02:47:20;;;;;;;2.22;2.13;;;3.40;99.90;;;;;;5062009;28;20258;-79
2023/03/06 02:49:47;;;;;;;4.53;3.80;;;3.40;99.90;;;;;;5062888;28;20230;-79
2023/03/06 02:52:14;;;;;;;0.80;0.80;;;3.40;99.90;;;;;;5062639;28;20277;-77
2023/03/06 02:54:41;;;;;;;2.05;1.85;;;3.30;99.90;;;;;;5062140;28;20698;-78
2023/03/06 02:57:08;;;;;;;0.50;0.50;;;3.30;99.90;;;;;;5062503;28;20205;-79
2023/03/06 02:59:36;;;;;;;3.33;3.13;;;3.30;99.90;;;;;;5062828;28;20262;-78
2023/03/06 03:02:03;;;;;;;2.00;1.90;;;3.30;99.90;;;;;;5061861;28;20412;-79
2023/03/06 03:04:30;;;;;;;0.60;0.50;;;3.30;99.90;;;;;;5061762;28;20282;-79
2023/03/06 03:06:57;;;;;;;0.50;0.40;;;3.30;99.90;;;;;;5063085;28;20195;-80
2023/03/06 03:09:23;;;;;;;2.55;2.35;;;3.30;99.90;;;;;;5063091;28;20233;-79
2023/03/06 03:11:50;;;;;;;1.70;1.60;;;3.20;99.90;;;;;;5062343;28;20258;-79
2023/03/06 03:14:17;;;;;;;1.20;1.10;;;3.20;99.90;;;;;;5061898;28;20211;-80
2023/03/06 03:16:45;;;;;;;3.63;3.05;;;3.20;99.90;;;;;;5061806;28;20227;-79
2023/03/06 03:19:12;;;;;;;17.42;9.32;;;3.30;99.90;;;;;;5062747;28;20214;-79
2023/03/06 03:21:40;;;;;;;5.38;3.70;;;3.20;99.90;;;;;;5061099;28;20229;-78
2023/03/06 03:24:08;;;;;;;0.50;0.40;;;3.20;99.90;;;;;;5062209;28;20224;-79
2023/03/06 03:26:35;;;;;;;9.00;2.70;;;3.20;99.90;;;;;;5061815;28;20302;-78
2023/03/06 03:29:04;;;;;;;6.07;5.07;;;3.20;99.90;;;;;;5061925;28;20198;-80
2023/03/06 03:31:31;;;;;;;0.50;0.40;;;3.20;99.90;;;;;;5062150;28;20254;-80
2023/03/06 03:34:00;;;;;;;2.40;2.25;;;3.20;99.90;;;;;;5062630;28;20206;-79
2023/03/06 03:36:27;;;;;;;0.50;0.40;;;3.20;99.90;;;;;;5060953;28;20199;-79
2023/03/06 03:38:55;;;;;;;3.20;2.05;;;3.20;99.90;;;;;;5055602;28;20229;-79
2023/03/06 03:41:21;;;;;;;1.77;1.67;;;3.10;99.90;;;;;;5061510;28;20209;-79
2023/03/06 03:43:48;;;;;;;2.40;2.30;;;3.10;99.90;;;;;;5061039;28;20662;-78
2023/03/06 03:46:15;;;;;;;0.70;0.70;;;3.10;99.90;;;;;;5060689;28;20302;-79
2023/03/06 03:48:42;;;;;;;4.50;4.05;;;3.10;99.90;;;;;;5060377;28;20198;-79
2023/03/06 03:51:12;;;;;;;0.50;0.50;;;3.10;99.90;;;;;;5060998;28;20266;-80
2023/03/06 03:53:39;;;;;;;10.48;2.22;;;3.00;99.90;;;;;;5059481;28;20209;-79
2023/03/06 03:56:06;;;;;;;1.30;0.60;;;3.00;99.90;;;;;;5060585;28;20218;-78
2023/03/06 03:58:34;;;;;;;1.40;1.30;;;3.00;99.90;;;;;;5060344;28;20274;-78
2023/03/06 04:01:01;;;;;;;0.50;0.50;;;3.00;99.90;;;;;;5061097;28;20222;-79
2023/03/06 04:03:28;;;;;;;0.93;0.93;;;3.10;99.90;;;;;;5060738;28;20199;-79
2023/03/06 04:05:56;;;;;;;1.15;1.15;;;3.10;99.90;;;;;;5051907;28;20214;-78
2023/03/06 04:08:25;;;;;;;0.50;0.50;;;3.10;99.90;;;;;;5060919;28;20206;-80
2023/03/06 04:10:53;;;;;;;0.50;0.40;;;3.10;99.90;;;;;;5060102;28;20190;-75
2023/03/06 04:13:21;;;;;;;0.52;0.52;;;3.00;99.90;;;;;;5059971;28;20729;-77
2023/03/06 04:15:48;;;;;;;1.60;1.50;;;3.00;99.90;;;;;;5060541;28;20222;-76
2023/03/06 04:18:16;;;;;;;4.28;3.20;;;3.00;99.90;;;;;;5061498;28;20283;-78
2023/03/06 04:20:43;;;;;;;0.50;0.40;;;3.00;99.90;;;;;;5059196;28;20201;-78
2023/03/06 04:23:10;;;;;;;0.55;0.55;;;3.00;99.90;;;;;;5058929;28;20194;-79
2023/03/06 04:25:38;;;;;;;0.50;0.40;;;3.00;99.90;;;;;;5059329;28;20221;-79
2023/03/06 04:28:05;;;;;;;0.70;0.70;;;3.00;99.90;;;;;;5060540;28;20339;-80
2023/03/06 04:30:33;;;;;;;2.45;1.95;;;3.00;99.90;;;;;;5060033;28;20302;-79
2023/03/06 04:33:00;;;;;;;3.80;3.00;;;3.10;99.90;;;;;;5059919;28;20286;-80
2023/03/06 04:35:28;;;;;;;0.70;0.60;;;3.10;99.90;;;;;;5059425;28;20282;-79
2023/03/06 04:37:54;;;;;;;1.92;1.83;;;3.10;99.90;;;;;;5060203;28;20190;-80
2023/03/06 04:40:26;;;;;;;1.88;1.77;;;3.10;99.90;;;;;;5061607;28;20195;-79
2023/03/06 04:42:54;;;;;;;0.50;0.40;;;3.10;99.90;;;;;;5064052;28;20226;-80
2023/03/06 04:45:21;;;;;;;0.60;0.60;;;3.10;99.90;;;;;;5062928;28;20646;-80
2023/03/06 04:47:48;;;;;;;0.65;0.60;;;3.10;99.90;;;;;;5062955;28;20217;-79
2023/03/06 04:50:16;;;;;;;4.97;3.30;;;3.10;99.90;;;;;;5061974;28;20282;-80
2023/03/06 04:52:44;;;;;;;0.50;0.40;;;3.10;99.90;;;;;;5058488;28;20202;-80
2023/03/06 04:55:13;;;;;;;5.53;2.20;;;3.00;99.90;;;;;;5058672;28;20221;-79
2023/03/06 04:57:42;;;;;;;2.50;2.40;;;3.00;99.90;;;;;;5059064;28;20289;-80
2023/03/06 05:00:15;;;;;;;3.53;2.67;;;3.00;99.90;;;;;;5059177;28;20213;-81
2023/03/06 05:02:42;;;;;;;0.50;0.40;;;3.00;99.90;;;;;;5059457;28;20204;-79
2023/03/06 05:05:10;;;;;;;1.23;1.23;;;2.90;99.90;;;;;;5058360;28;20219;-79
2023/03/06 05:07:37;;;;;;;1.55;1.23;;;2.90;99.90;;;;;;5058819;28;20201;-79
2023/03/06 05:10:05;;;;;;;3.80;2.90;;;2.80;99.90;;;;;;5059194;28;20273;-80
2023/03/06 05:12:34;;;;;;;0.50;0.40;;;2.80;99.90;;;;;;5055676;28;20716;-77
2023/03/06 05:15:01;;;;;;;0.50;0.40;;;2.80;99.90;;;;;;5054584;28;20772;-77
2023/03/06 05:17:30;;;;;;;4.22;2.90;;;2.70;99.90;;;;;;5054371;28;20246;-78
2023/03/06 05:19:56;;;;;;;4.28;3.88;;;2.70;99.90;;;;;;5054441;28;20234;-78
2023/03/06 05:22:23;;;;;;;9.38;6.13;;;2.60;99.90;;;;;;5054458;28;20191;-78
2023/03/06 05:24:50;;;;;;;0.95;0.95;;;2.60;99.90;;;;;;5054256;28;20210;-77
2023/03/06 05:27:17;;;;;;;1.55;1.48;;;2.50;99.90;;;;;;5054296;28;20278;-77
2023/03/06 05:29:44;;;;;;;7.45;2.78;;;2.60;99.90;;;;;;5054066;28;20198;-77
2023/03/06 05:32:11;;;;;;;12.32;4.95;;;2.50;99.90;;;;;;5054055;28;20221;-78
2023/03/06 05:34:40;;;;;;;0.95;0.95;;;2.50;99.90;;;;;;5053819;28;20214;-77
2023/03/06 05:37:07;;;;;;;4.47;4.18;;;2.50;99.90;;;;;;5053345;28;20294;-76
2023/03/06 05:39:34;;;;;;;0.85;0.85;;;2.50;99.90;;;;;;5053401;28;20233;-78
2023/03/06 05:42:01;;;;;;;2.58;2.47;;;2.60;99.90;;;;;;5045488;28;20248;-77
2023/03/06 05:44:31;;;;;;;5.88;3.95;;;2.60;99.90;;;;;;5053590;28;20250;-77
2023/03/06 05:46:57;;;;;;;8.05;5.50;;;2.60;99.90;;;;;;5053971;28;20273;-77
2023/03/06 05:49:24;;;;;;;8.02;2.70;;;2.60;99.90;;;;;;5052872;28;20654;-77
2023/03/06 05:51:53;;;;;;;0.80;0.77;;;2.50;99.90;;;;;;5053418;28;20222;-77
2023/03/06 05:54:20;;;;;;;1.98;1.88;;;2.40;99.90;;;;;;5054157;28;20677;-77
2023/03/06 05:56:47;;;;;;;1.88;1.77;;;2.40;99.90;;;;;;5052652;28;20593;-78
2023/03/06 05:59:14;;;;;;;6.00;5.45;;;2.40;99.90;;;;;;5053405;28;20191;-78
2023/03/06 06:01:41;;;;;;;10.43;4.57;;;2.40;99.90;;;;;;5052682;28;20201;-78
2023/03/06 06:04:08;;;;;;;4.25;3.65;;;2.40;99.90;;;;;;5052268;28;20565;-77
2023/03/06 06:06:35;;;;;;;11.32;4.95;;;2.40;99.90;;;;;;5052977;28;20191;-78
2023/03/06 06:09:04;;;;;;;0.60;0.60;;;2.40;99.90;;;;;;5044281;28;20197;-77
2023/03/06 06:11:30;;;;;;;3.70;3.30;;;2.40;99.90;;;;;;5053565;28;20201;-78
2023/03/06 06:13:57;;;;;;;6.47;4.43;;;2.50;99.90;;;;;;5054121;28;20281;-79
2023/03/06 06:16:24;;;;;;;2.75;2.25;;;2.50;99.90;;;;;;5055310;28;20681;-79
2023/03/06 06:18:51;;;;;;;1.92;1.83;;;2.50;99.90;;;;;;5061129;28;20191;-79
2023/03/06 06:21:18;;;;;;;2.35;2.15;;;2.50;99.90;;;;;;5059053;28;20182;-79
2023/03/06 06:23:45;;;;;;;1.40;1.30;;;2.50;99.90;;;;;;5060931;28;20350;-78
2023/03/06 06:26:13;;;;;;;4.30;2.42;;;2.50;99.90;;;;;;5060181;28;20293;-78
2023/03/06 06:28:40;;;;;;;8.48;4.15;;;2.60;99.90;;;;;;5059517;28;20195;-78
2023/03/06 06:31:09;;;;;;;2.28;2.10;;;2.60;99.90;;;;;;5060318;28;20392;-80
2023/03/06 06:33:36;;;;;;;2.58;2.38;;;2.60;99.90;;;;;;5055237;28;20205;-78
2023/03/06 06:36:03;;;;;;;12.70;5.80;;;2.60;99.90;;;;;;5054497;28;20224;-78
2023/03/06 06:38:30;;;;;;;6.03;2.40;;;2.60;99.90;;;;;;5056989;28;20230;-79
2023/03/06 06:40:56;;;;;;;3.25;1.60;;;2.60;99.90;;;;;;5057278;28;20205;-79
2023/03/06 06:43:25;;;;;;;4.55;4.13;;;2.60;99.90;;;;;;5055770;28;20186;-79
2023/03/06 06:45:51;;;;;;;5.72;3.55;;;2.60;99.90;;;;;;5055997;28;20210;-78
2023/03/06 06:48:18;;;;;;;2.50;2.35;;;2.60;99.90;;;;;;5056628;28;20289;-78
2023/03/06 06:50:45;;;;;;;1.55;1.15;;;2.60;99.90;;;;;;5056448;28;20197;-78
2023/03/06 06:53:12;;;;;;;13.73;5.53;;;2.60;99.90;;;;;;5055834;28;20278;-78
2023/03/06 06:55:39;;;;;;;7.70;3.13;;;2.70;99.90;;;;;;5056773;28;20634;-78
2023/03/06 06:58:06;;;;;;;4.95;2.88;;;2.70;99.90;;;;;;5058130;28;20630;-79
2023/03/06 07:00:34;;;;;;;1.77;1.67;;;2.70;99.90;;;;;;5059314;28;20190;-79
2023/03/06 07:03:01;;;;;;;3.25;1.60;;;2.70;99.90;;;;;;5057249;28;20326;-79
2023/03/06 07:05:27;;;;;;;9.88;2.28;;;2.70;99.90;;;;;;5057259;28;20214;-79
2023/03/06 07:07:55;;;;;;;1.42;0.93;;;2.70;99.90;;;;;;5056998;28;20227;-79
2023/03/06 07:10:22;;;;;;;2.97;1.35;;;2.80;99.90;;;;;;5058178;28;20191;-79
2023/03/06 07:12:49;;;;;;;1.38;1.27;;;2.80;99.90;;;;;;5059100;28;20237;-80
2023/03/06 07:15:17;;;;;;;2.42;2.15;;;2.90;99.90;;;;;;5057805;28;20297;-78
2023/03/06 07:17:45;;;;;;;12.05;7.60;;;2.90;99.90;;;;;;5055214;28;20225;-78
2023/03/06 07:20:12;;;;;;;0.80;0.80;;;2.90;99.90;;;;;;5056593;28;20279;-77
2023/03/06 07:22:39;;;;;;;0.70;0.70;;;2.90;99.90;;;;;;5055722;28;20237;-78
2023/03/06 07:25:06;;;;;;;3.65;2.35;;;3.00;99.90;;;;;;5055844;28;20613;-76
2023/03/06 07:27:33;;;;;;;12.52;4.13;;;3.00;99.90;;;;;;5056804;28;20626;-77
2023/03/06 07:30:00;;;;;;;3.20;2.83;;;3.00;99.90;;;;;;5057426;28;21941;-79
2023/03/06 07:32:27;;;;;;;5.55;5.15;;;3.00;99.90;;;;;;5071432;28;20245;-79
2023/03/06 07:34:56;;;;;;;14.93;9.38;;;3.00;99.90;;;;;;5068037;28;20293;-82
2023/03/06 07:37:22;;;;;;;3.70;3.15;;;3.10;99.90;;;;;;5065084;28;20217;-78
2023/03/06 07:39:49;;;;;;;11.10;7.20;;;3.00;99.90;;;;;;5057948;28;20281;-79
2023/03/06 07:42:16;;;;;;;16.08;3.17;;;3.10;99.90;;;;;;5061028;28;20237;-77
2023/03/06 07:44:43;;;;;;;1.08;1.08;;;3.10;99.90;;;;;;5060995;28;20246;-78
2023/03/06 07:47:12;;;;;;;4.47;2.17;;;3.20;99.90;;;;;;5052293;28;20193;-79
2023/03/06 07:49:39;;;;;;;1.70;1.60;;;3.20;99.90;;;;;;5055638;28;20197;-79
2023/03/06 07:52:07;;;;;;;1.27;1.25;;;3.30;99.90;;;;;;5058716;28;20277;-80
2023/03/06 07:54:34;;;;;;;5.10;3.83;;;3.30;99.90;;;;;;5059732;28;20747;-81
2023/03/06 07:57:01;;;;;;;5.78;4.63;;;3.30;99.90;;;;;;5058961;28;20693;-79
2023/03/06 07:59:28;;;;;;;7.63;5.25;;;3.40;99.90;;;;;;5058555;28;20262;-79
2023/03/06 08:01:56;;;;;;;2.50;2.28;;;3.30;99.90;;;;;;5059869;28;20225;-81
2023/03/06 08:04:23;;;;;;;2.25;2.15;;;3.40;99.90;;;;;;5055826;28;20199;-80
2023/03/06 08:06:49;;;;;;;3.65;2.88;;;3.50;99.90;;;;;;5057644;28;20197;-79
2023/03/06 08:09:18;;;;;;;8.18;4.45;;;3.50;99.90;;;;;;5060437;28;20274;-79
2023/03/06 08:11:44;;;;;;;2.90;2.67;;;3.60;99.90;;;;;;5060207;28;20580;-77
2023/03/06 08:14:11;;;;;;;0.80;0.80;;;3.60;99.90;;;;;;5058507;28;20262;-79
2023/03/06 08:16:38;;;;;;;3.90;3.28;;;3.70;99.90;;;;;;5060171;28;20248;-78
2023/03/06 08:19:05;;;;;;;2.63;2.53;;;3.70;99.90;;;;;;5060184;28;20278;-78
2023/03/06 08:21:32;;;;;;;6.55;3.92;;;3.60;99.90;;;;;;5053670;28;20199;-79
2023/03/06 08:23:59;;;;;;;0.50;0.40;;;3.60;99.90;;;;;;5058148;28;20199;-79
2023/03/06 08:26:29;;;;;;;3.47;1.05;;;3.50;99.90;;;;;;5056715;28;20238;-78
2023/03/06 08:28:58;;;;;;;3.28;3.05;;;3.60;99.90;;;;;;5057659;28;20187;-78
2023/03/06 08:31:28;;;;;;;4.82;4.53;;;3.60;99.90;;;;;;5058717;28;20187;-78
2023/03/06 08:33:56;;;;;;;15.02;7.53;;;3.60;99.90;;;;;;5057499;28;20230;-80
2023/03/06 08:36:23;;;;;;;9.07;5.38;;;3.60;99.90;;;;;;5058420;28;20214;-78
2023/03/06 08:38:50;;;;;;;0.50;0.40;;;3.50;99.90;;;;;;5054336;28;20610;-78
2023/03/06 08:41:17;;;;;;;2.97;2.75;;;3.50;99.90;;;;;;5060683;28;20649;-80
2023/03/06 08:43:46;;;;;;;0.60;0.60;;;3.60;99.90;;;;;;5062888;28;20198;-80
2023/03/06 08:46:13;;;;;;;1.67;1.58;;;3.50;99.90;;;;;;5056786;28;20241;-79
2023/03/06 08:48:40;;;;;;;1.92;1.02;;;3.50;99.90;;;;;;5062587;28;20262;-79
2023/03/06 08:51:08;;;;;;;4.35;3.55;;;3.50;99.90;;;;;;5064534;28;20762;-80
2023/03/06 08:53:35;;;;;;;9.35;3.15;;;3.50;99.90;;;;;;5062466;28;20233;-81
2023/03/06 08:56:02;;;;;;;0.70;0.50;;;3.50;99.90;;;;;;5062687;28;20286;-79
2023/03/06 08:58:30;;;;;;;13.80;3.95;;;3.40;99.90;;;;;;5066553;28;20642;-80
2023/03/06 09:00:59;;;;;;;1.90;1.75;;;3.40;99.90;;;;;;5065359;28;20191;-79
2023/03/06 09:03:26;;;;;;;10.93;2.25;;;3.30;99.90;;;;;;5063623;28;20286;-81
2023/03/06 09:05:53;;;;;;;5.13;2.75;;;3.20;99.90;;;;;;5064024;28;20214;-79
2023/03/06 09:08:19;;;;;;;5.68;1.58;;;3.20;99.90;;;;;;5067432;28;20262;-80
2023/03/06 09:10:47;;;;;;;2.08;1.98;;;3.20;99.90;;;;;;5065815;28;20237;-81
2023/03/06 09:13:14;;;;;;;12.23;5.70;;;3.30;99.90;;;;;;5065754;28;20186;-81
2023/03/06 09:15:41;;;;;;;2.78;2.25;;;3.40;99.90;;;;;;5066728;28;20278;-80
2023/03/06 09:18:09;;;;;;;2.75;2.65;;;3.50;99.90;;;;;;5121103;22;20197;-80
2023/03/06 09:20:36;;;;;;;2.50;2.25;;;3.70;99.90;;;;;;5073744;28;20610;-79
2023/03/06 09:23:03;;;;;;;1.98;1.88;;;3.70;99.90;;;;;;5077502;28;20257;-79
2023/03/06 09:25:30;;;;;;;2.58;2.38;;;3.80;99.90;;;;;;5074172;28;20195;-79
2023/03/06 09:27:56;;;;;;;2.72;2.60;;;3.80;99.90;;;;;;5078614;28;20251;-79
2023/03/06 09:30:23;;;;;;;2.67;2.55;;;3.80;99.90;;;;;;5067118;28;20198;-80
2023/03/06 09:32:50;;;;;;;1.77;1.67;;;3.90;99.90;;;;;;5072629;28;20296;-78
2023/03/06 09:35:19;;;;;;;6.25;3.30;;;4.00;99.90;;;;;;5057246;28;20254;-80
2023/03/06 09:37:46;;;;;;;5.78;4.07;;;4.00;99.90;;;;;;5065031;28;20210;-78
2023/03/06 09:40:19;;;;;;;3.70;3.55;;;4.00;99.90;;;;;;5067801;28;20723;-79
2023/03/06 09:42:46;;;;;;;3.42;3.13;;;3.90;99.90;;;;;;5069463;28;20290;-79
2023/03/06 09:45:13;;;;;;;0.60;0.50;;;3.80;99.90;;;;;;5064830;28;20570;-79
2023/03/06 09:47:51;;;;;;;9.60;5.63;;;3.70;99.90;;;;;;5063736;28;20201;-79
2023/03/06 09:50:39;;;;;;;1.17;1.17;;;3.70;99.90;;;;;;5057718;28;20198;-80
2023/03/06 09:53:18;;;;;;;4.82;3.05;;;3.70;99.90;;;;;;5075400;28;20285;-79
2023/03/06 09:55:50;;;;;;;11.43;4.45;;;3.60;99.90;;;;;;5061357;28;20293;-79
2023/03/06 09:58:20;;;;;;;2.90;0.95;;;3.60;99.90;;;;;;5048827;28;20276;-80
2023/03/06 10:00:58;;;;;;;1.15;1.15;;;3.60;99.90;;;;;;5073083;28;20202;-79
2023/03/06 10:03:29;;;;;;;0.63;0.63;;;3.70;99.90;;;;;;5063325;28;20636;-80
2023/03/06 10:06:03;;;;;;;1.35;1.25;;;3.70;99.90;;;;;;5067689;28;20384;-79
2023/03/06 10:08:47;;;;;;;11.13;3.67;;;3.70;99.90;;;;;;5054198;28;20308;-79
2023/03/06 10:11:19;;;;;;;1.50;1.35;;;3.80;99.90;;;;;;5064329;28;20194;-78
2023/03/06 10:13:50;;;;;;;3.25;1.58;;;3.80;99.90;;;;;;5070790;28;20637;-79
2023/03/06 10:16:29;;;;;;;2.65;2.55;;;3.80;99.90;;;;;;5054377;28;20792;-80
2023/03/06 10:19:00;;;;;;;1.67;1.58;;;3.80;99.90;;;;;;5060333;28;20252;-80
2023/03/06 10:21:42;;;;;;;3.38;3.10;;;4.00;99.90;;;;;;5056220;28;20202;-81
2023/03/06 10:24:32;;;;;;;1.20;1.10;;;4.10;99.90;;;;;;5053588;28;20274;-79
2023/03/06 10:27:03;;;;;;;1.35;1.25;;;4.30;99.90;;;;;;5067604;28;20205;-78
2023/03/06 10:29:43;;;;;;;6.25;2.88;;;4.40;99.90;;;;;;5060668;28;20222;-80
2023/03/06 10:32:18;;;;;;;4.47;1.67;;;4.50;99.90;;;;;;5063083;28;20212;-79
2023/03/06 10:34:45;;;;;;;1.23;1.23;;;4.60;99.90;;;;;;5058351;28;20224;-79
2023/03/06 10:37:18;;;;;;;0.50;0.40;;;4.60;99.90;;;;;;5068823;28;20210;-79
2023/03/06 10:39:46;;;;;;;0.50;0.40;;;4.60;99.90;;;;;;5069839;28;20225;-79
2023/03/06 10:42:12;;;;;;;0.65;0.65;;;4.70;99.90;;;;;;5066308;28;20216;-79
2023/03/06 10:44:39;;;;;;;1.52;1.52;;;4.70;99.90;;;;;;5061248;28;20241;-79
2023/03/06 10:47:30;;;;;;;6.43;1.92;;;4.70;99.90;;;;;;5066482;28;20205;-80
2023/03/06 10:49:59;;;;;;;0.93;0.93;;;4.70;99.90;;;;;;5051702;28;20215;-78
2023/03/06 10:52:30;;;;;;;2.88;2.70;;;4.80;99.90;;;;;;5052280;28;20573;-78
2023/03/06 10:55:26;;;;;;;0.50;0.43;;;5.00;99.90;;;;;;5052186;28;20282;-77
2023/03/06 10:57:53;;;;;;;1.08;0.95;;;5.60;99.90;;;;;;5055495;28;20675;-78
2023/03/06 11:00:30;;;;;;;2.47;2.28;;;6.50;99.90;;;;;;5059288;28;20547;-77
2023/03/06 11:03:20;;;;;;;0.60;0.60;;;7.00;99.90;;;;;;5060449;28;20285;-78
2023/03/06 11:06:01;;;;;;;7.55;3.00;;;7.10;99.90;;;;;;5052931;28;20202;-78
2023/03/06 11:08:30;;;;;;;2.08;1.88;;;7.10;99.90;;;;;;5061941;28;20213;-78
2023/03/06 11:11:00;;;;;;;4.45;2.20;;;7.50;99.90;;;;;;5055900;28;20226;-77
2023/03/06 11:13:29;;;;;;;0.60;0.60;;;7.40;99.90;;;;;;5052594;28;20210;-78
2023/03/06 11:15:59;;;;;;;1.17;1.17;;;7.20;99.90;;;;;;5065278;28;20222;-77
2023/03/06 11:18:33;;;;;;;0.50;0.40;;;7.20;99.90;;;;;;5062229;28;20232;-77
2023/03/06 11:21:01;;;;;;;1.80;0.80;;;7.60;99.90;;;;;;5073246;28;20213;-78
2023/03/06 11:23:41;;;;;;;3.05;2.13;;;8.10;99.90;;;;;;5070730;28;20202;-78
2023/03/06 11:26:30;;;;;;;1.90;1.40;;;8.20;99.90;;;;;;5066720;28;20194;-79
2023/03/06 11:29:11;;;;;;;0.95;0.95;;;8.60;99.90;;;;;;5070347;28;20222;-80
2023/03/06 11:31:44;;;;;;;5.28;2.85;;;9.70;99.90;;;;;;5066538;28;20306;-77
2023/03/06 11:34:18;;;;;;;1.20;1.20;;;10.90;99.90;;;;;;5068111;28;20724;-79
2023/03/06 11:36:49;;;;;;;1.15;1.15;;;10.70;99.90;;;;;;5070759;28;20327;-78
2023/03/06 11:39:26;;;;;;;1.70;1.20;;;10.10;99.90;;;;;;5062480;28;20214;-77
2023/03/06 11:41:59;;;;;;;0.50;0.50;;;9.40;99.90;;;;;;5072198;28;20760;-77
2023/03/06 11:44:36;;;;;;;3.83;1.33;;;8.80;99.90;;;;;;5068102;28;20206;-79
2023/03/06 11:47:17;;;;;;;3.90;1.63;;;8.30;99.90;;;;;;5075224;28;20198;-78
2023/03/06 11:49:48;;;;;;;1.60;1.50;;;8.00;99.90;;;;;;5067495;28;20655;-78
2023/03/06 11:52:22;;;;;;;4.57;3.40;;;7.80;99.90;;;;;;5075262;28;20208;-78
2023/03/06 11:54:55;;;;;;;2.05;1.95;;;7.60;99.90;;;;;;5066902;28;20289;-78
2023/03/06 11:57:25;;;;;;;1.23;0.85;;;8.20;99.90;;;;;;5059260;28;20210;-79
2023/03/06 12:00:11;;;;;;;0.50;0.40;;;9.60;99.90;;;;;;5068088;28;20229;-78
2023/03/06 12:02:58;;;;;;;4.18;2.05;;;10.90;99.90;;;;;;5062404;28;20272;-78
2023/03/06 12:05:34;;;;;;;1.85;1.58;;;11.80;99.90;;;;;;5062644;28;20186;-77
2023/03/06 12:08:16;;;;;;;3.00;1.48;;;11.10;99.90;;;;;;5070946;28;20190;-78
2023/03/06 12:10:48;;;;;;;1.35;1.25;;;10.50;99.90;;;;;;5071677;28;20210;-78
2023/03/06 12:13:34;;;;;;;1.05;0.95;;;9.90;99.90;;;;;;5073929;28;20271;-78
2023/03/06 12:16:24;;;;;;;0.90;0.80;;;9.70;99.90;;;;;;5074302;28;20257;-77
2023/03/06 12:18:58;;;;;;;1.58;1.33;;;9.50;99.90;;;;;;5078732;28;20281;-78
2023/03/06 12:21:33;;;;;;;1.30;0.75;;;9.20;99.90;;;;;;5062210;28;20197;-78
2023/03/06 12:24:24;;;;;;;2.55;1.02;;;9.70;99.90;;;;;;5061850;28;20226;-78
2023/03/06 12:27:12;;;;;;;0.50;0.50;;;10.20;99.90;;;;;;5078230;28;20194;-78
2023/03/06 12:29:53;;;;;;;5.15;1.10;;;10.40;97.10;;;;;;5067795;28;20217;-79
2023/03/06 12:32:31;;;;;;;0.77;0.77;;;10.90;99.10;;;;;;5076810;28;20248;-79
2023/03/06 12:35:14;;;;;;;0.95;0.88;;;11.10;97.30;;;;;;5059509;28;20562;-78
2023/03/06 12:37:52;;;;;;;3.13;1.15;;;10.90;93.70;;;;;;5053792;28;20241;-77
2023/03/06 12:40:48;;;;;;;0.60;0.50;;;11.30;95.60;;;;;;5079446;28;20301;-79
2023/03/06 12:43:53;;;;;;;1.57;1.47;;;11.90;92.90;;;;;;5070953;28;20256;-79
2023/03/06 12:46:22;;;;;;;0.73;0.67;;;13.10;90.50;;;;;;5040183;28;20447;-79
2023/03/06 12:49:02;;;;;;;3.40;2.70;;;13.90;81.40;;;;;;5059950;28;20534;-79
2023/03/06 12:51:31;;;;;;;4.67;1.40;;;13.90;73.80;;;;;;5044764;28;20546;-79
2023/03/06 12:54:00;;;;;;;0.80;0.63;;;12.90;72.50;;;;;;5050292;28;20992;-80
2023/03/06 12:56:28;;;;;;;0.70;0.70;;;12.40;75.30;;;;;;5044819;28;20805;-80
2023/03/06 12:59:01;;;;;;;2.15;1.52;;;11.70;76.40;;;;;;5044905;28;20545;-79
2023/03/06 13:01:49;;;;;;;1.02;0.63;;;10.90;77.10;;;;;;5055603;28;20213;-79
2023/03/06 13:04:49;;;;;;;1.63;1.52;;;10.00;78.60;;;;;;5060283;28;20202;-80
2023/03/06 13:07:28;;;;;;;5.20;1.40;;;9.40;84.20;;;;;;5053047;28;20210;-81
2023/03/06 13:10:07;;;;;;;2.28;1.67;;;9.00;89.10;;;;;;5046572;28;20225;-79